Time;durP1;ratioP1;P1;durP2;ratioP2;P2;SDS_P1;SDS_P2;PMS_P1;PMS_P2;Temp;Humidity;BMP_temperature;BMP_pressure;BME280_temperature;BME280_humidity;BME280_pressure;Samples;Min_cycle;Max_cycle;Signal;HPM_P1;HPM_P2
2023/06/14 00:02:14;;;;;;;15.38;5.60;;;;;;;14.38;44.86;100190.16;5054037;28;20036;-62
2023/06/14 00:04:41;;;;;;;10.60;6.05;;;;;;;14.33;45.17;100187.03;5054367;28;20032;-63
2023/06/14 00:07:10;;;;;;;12.18;6.45;;;;;;;14.07;45.75;100174.09;5054160;28;20028;-61
2023/06/14 00:09:35;;;;;;;11.80;5.93;;;;;;;14.21;45.02;100202.47;5053995;28;20033;-63
2023/06/14 00:12:01;;;;;;;15.65;6.88;;;;;;;14.16;45.79;100197.47;5053379;28;20041;-62
2023/06/14 00:14:28;;;;;;;16.30;6.28;;;;;;;14.11;45.29;100198.91;5053619;28;20033;-61
2023/06/14 00:16:58;;;;;;;16.10;7.05;;;;;;;14.12;46.11;100201.44;5054235;28;20523;-62
2023/06/14 00:19:25;;;;;;;14.73;7.72;;;;;;;14.04;46.36;100206.69;5053716;28;20760;-61
2023/06/14 00:21:51;;;;;;;14.60;8.35;;;;;;;14.02;46.63;100204.13;5053551;28;20052;-61
2023/06/14 00:24:17;;;;;;;16.15;8.32;;;;;;;13.93;46.68;100191.47;5052183;28;20111;-62
2023/06/14 00:26:43;;;;;;;13.32;6.25;;;;;;;13.92;46.65;100212.16;5051554;28;20146;-62
2023/06/14 00:29:08;;;;;;;16.33;7.40;;;;;;;13.87;47.13;100209.03;5053470;28;20033;-62
2023/06/14 00:31:34;;;;;;;15.48;6.97;;;;;;;13.81;47.11;100200.63;5053049;28;20040;-62
2023/06/14 00:34:00;;;;;;;12.68;6.15;;;;;;;13.81;47.03;100203.31;5053005;28;20565;-61
2023/06/14 00:36:25;;;;;;;18.70;6.80;;;;;;;13.80;46.98;100205.19;5053415;28;20029;-62
2023/06/14 00:38:51;;;;;;;12.98;7.82;;;;;;;13.75;47.32;100202.88;5053182;28;20032;-62
2023/06/14 00:41:16;;;;;;;16.08;6.45;;;;;;;13.66;47.34;100190.25;5053332;28;20028;-61
2023/06/14 00:43:42;;;;;;;15.50;6.80;;;;;;;13.71;47.69;100195.22;5053335;28;20137;-61
2023/06/14 00:46:08;;;;;;;12.07;6.63;;;;;;;13.44;47.79;100169.75;5053400;28;20087;-62
2023/06/14 00:48:35;;;;;;;14.80;6.03;;;;;;;13.64;47.60;100203.00;5053362;28;20028;-62
2023/06/14 00:51:03;;;;;;;10.63;6.13;;;;;;;13.59;47.78;100200.69;5053286;28;20082;-61
2023/06/14 00:53:33;;;;;;;14.00;6.72;;;;;;;13.57;48.22;100204.50;5052622;28;20053;-62
2023/06/14 00:55:59;;;;;;;17.33;6.40;;;;;;;13.54;47.90;100197.56;5035435;28;20309;-62
2023/06/14 00:58:26;;;;;;;15.52;6.05;;;;;;;13.54;48.26;100202.94;5053463;28;20028;-61
2023/06/14 01:00:51;;;;;;;12.35;5.82;;;;;;;13.53;48.00;100197.69;5052800;28;20089;-61
2023/06/14 01:03:22;;;;;;;17.30;6.38;;;;;;;13.40;48.29;100185.28;5052392;28;20103;-60
2023/06/14 01:05:58;;;;;;;19.90;6.13;;;;;;;13.55;47.69;100201.97;5053271;28;20029;-61
2023/06/14 01:08:51;;;;;;;18.80;6.05;;;;;;;13.66;47.51;100197.47;5052984;28;20032;-62
2023/06/14 01:11:28;;;;;;;13.40;6.47;;;;;;;13.60;48.33;100202.41;5044564;28;20063;-62
2023/06/14 01:13:55;;;;;;;27.70;6.60;;;;;;;13.49;48.61;100197.97;5053268;28;20071;-61
2023/06/14 01:16:21;;;;;;;20.92;6.72;;;;;;;13.49;48.74;100206.03;5052920;28;20036;-61
2023/06/14 01:18:49;;;;;;;23.88;6.82;;;;;;;13.49;48.96;100191.72;5052085;28;20032;-62
2023/06/14 01:21:25;;;;;;;20.10;6.93;;;;;;;13.60;48.65;100199.72;5052935;28;20083;-62
2023/06/14 01:23:54;;;;;;;24.23;6.88;;;;;;;13.51;48.74;100197.84;5053023;28;20121;-63
2023/06/14 01:26:23;;;;;;;21.52;6.57;;;;;;;13.57;48.68;100210.75;5034888;28;20090;-61
2023/06/14 01:28:50;;;;;;;16.63;6.95;;;;;;;13.56;49.06;100205.47;5052637;28;20029;-62
2023/06/14 01:31:21;;;;;;;27.85;6.40;;;;;;;13.56;48.80;100206.34;5052437;28;20036;-62
2023/06/14 01:33:49;;;;;;;15.07;6.90;;;;;;;13.59;48.67;100205.22;5052784;28;20043;-62
2023/06/14 01:36:16;;;;;;;16.67;7.18;;;;;;;13.54;48.61;100202.94;5052468;28;20326;-62
2023/06/14 01:38:44;;;;;;;22.08;7.05;;;;;;;13.63;48.72;100206.66;5051676;28;20029;-62
2023/06/14 01:41:10;;;;;;;16.80;7.45;;;;;;;13.45;48.74;100166.06;5035609;28;20064;-66
2023/06/14 01:43:36;;;;;;;23.10;7.13;;;;;;;13.71;48.76;100209.53;5052948;28;20025;-62
2023/06/14 01:46:03;;;;;;;19.27;6.55;;;;;;;13.76;48.66;100218.03;5051674;28;20067;-62
2023/06/14 01:48:28;;;;;;;16.98;6.70;;;;;;;13.79;48.10;100206.16;5052465;28;20028;-62
2023/06/14 01:50:54;;;;;;;17.48;6.75;;;;;;;13.87;48.27;100217.09;5052539;28;20044;-61
2023/06/14 01:53:20;;;;;;;12.32;6.60;;;;;;;13.96;47.93;100211.88;5052339;28;20115;-62
2023/06/14 01:55:48;;;;;;;14.63;7.28;;;;;;;14.04;47.28;100214.75;5051789;28;20112;-62
2023/06/14 01:58:15;;;;;;;14.75;7.05;;;;;;;13.85;47.95;100176.00;5051639;28;20032;-61
2023/06/14 02:00:43;;;;;;;14.68;6.43;;;;;;;14.12;48.12;100201.44;5052255;28;20039;-64
2023/06/14 02:03:08;;;;;;;17.17;7.30;;;;;;;14.25;47.25;100219.22;5052919;28;20055;-61
2023/06/14 02:05:34;;;;;;;15.68;6.90;;;;;;;14.28;47.43;100210.84;5051669;28;20405;-62
2023/06/14 02:08:00;;;;;;;14.02;7.38;;;;;;;14.13;47.18;100181.59;5052098;28;20052;-61
2023/06/14 02:10:26;;;;;;;14.95;6.95;;;;;;;14.39;47.06;100202.63;5035034;28;20033;-61
2023/06/14 02:12:52;;;;;;;15.20;7.60;;;;;;;14.46;46.95;100203.78;5052356;28;20468;-66
2023/06/14 02:15:19;;;;;;;13.45;7.07;;;;;;;14.44;47.22;100181.50;5051104;28;20408;-62
2023/06/14 02:17:49;;;;;;;16.17;7.78;;;;;;;14.80;46.35;100205.25;5051922;28;20372;-62
2023/06/14 02:20:15;;;;;;;12.70;7.15;;;;;;;15.02;45.66;100198.72;5052163;28;20028;-61
2023/06/14 02:22:41;;;;;;;11.55;7.30;;;;;;;15.28;45.88;100202.63;5051855;28;20037;-63
2023/06/14 02:25:08;;;;;;;14.73;7.18;;;;;;;15.52;45.92;100209.38;5051911;28;20480;-61
2023/06/14 02:27:34;;;;;;;11.85;7.20;;;;;;;15.74;45.09;100202.78;5051880;28;20033;-62
2023/06/14 02:30:00;;;;;;;16.42;7.82;;;;;;;15.99;44.23;100201.28;5051858;28;20024;-62
2023/06/14 02:32:27;;;;;;;14.18;7.30;;;;;;;16.28;43.59;100199.41;5033814;28;20041;-61
2023/06/14 02:34:53;;;;;;;14.35;7.20;;;;;;;16.61;43.18;100199.75;5051543;28;20102;-61
2023/06/14 02:37:19;;;;;;;14.60;7.13;;;;;;;16.99;42.44;100195.06;5051903;28;20048;-63
2023/06/14 02:39:45;;;;;;;15.63;7.65;;;;;;;17.47;41.52;100197.41;5052045;28;20083;-62
2023/06/14 02:42:10;;;;;;;16.17;7.13;;;;;;;17.85;40.49;100207.94;5051778;28;20033;-61
2023/06/14 02:44:36;;;;;;;19.20;7.25;;;;;;;18.13;39.91;100215.88;5051667;28;20033;-60
2023/06/14 02:47:02;;;;;;;16.13;8.13;;;;;;;18.00;39.55;100164.81;5033869;28;20036;-60
2023/06/14 02:49:29;;;;;;;16.02;6.90;;;;;;;18.38;39.16;100208.66;5052955;28;20139;-62
2023/06/14 02:51:55;;;;;;;16.13;7.03;;;;;;;18.43;39.04;100211.72;5055386;28;20090;-61
2023/06/14 02:54:20;;;;;;;15.93;7.90;;;;;;;18.49;38.58;100211.06;5055195;28;20120;-61
2023/06/14 02:56:46;;;;;;;19.60;7.63;;;;;;;18.72;38.45;100221.25;5055028;28;20119;-62
2023/06/14 02:59:13;;;;;;;19.38;7.97;;;;;;;18.90;37.73;100201.28;5055610;28;20112;-62
2023/06/14 03:01:40;;;;;;;19.60;7.80;;;;;;;19.15;37.27;100210.28;5038220;28;20039;-62
2023/06/14 03:04:10;;;;;;;20.08;7.45;;;;;;;19.41;36.95;100192.09;5054996;28;20112;-61
2023/06/14 03:06:36;;;;;;;18.63;8.25;;;;;;;19.87;35.73;100219.47;5054709;28;20033;-62
2023/06/14 03:09:07;;;;;;;12.98;7.70;;;;;;;20.34;35.25;100227.78;5054967;28;20064;-62
2023/06/14 03:11:33;;;;;;;12.00;7.55;;;;;;;20.58;34.16;100215.06;5055016;28;20072;-60
2023/06/14 03:14:00;;;;;;;16.27;7.93;;;;;;;20.95;33.67;100232.50;5054944;28;20045;-60
2023/06/14 03:16:28;;;;;;;16.98;7.88;;;;;;;21.33;33.18;100224.38;5055204;28;20037;-61
2023/06/14 03:18:54;;;;;;;11.65;7.43;;;;;;;21.69;32.39;100216.53;5055542;28;20029;-61
2023/06/14 03:21:22;;;;;;;16.15;8.20;;;;;;;21.98;31.59;100221.13;5054884;28;20029;-62
2023/06/14 03:23:48;;;;;;;16.80;7.85;;;;;;;22.21;31.29;100223.75;5054311;28;20029;-63
2023/06/14 03:26:17;;;;;;;19.20;8.15;;;;;;;22.48;30.84;100221.38;5055312;28;20040;-61
2023/06/14 03:28:45;;;;;;;16.67;8.30;;;;;;;22.47;30.81;100197.00;5055485;28;20064;-62
2023/06/14 03:31:11;;;;;;;18.50;7.80;;;;;;;22.75;30.11;100221.66;5037190;28;20033;-61
2023/06/14 03:33:36;;;;;;;14.85;8.82;;;;;;;22.89;30.16;100219.03;5054044;28;20051;-61
2023/06/14 03:36:02;;;;;;;17.42;8.55;;;;;;;23.16;29.57;100211.09;5054829;28;20032;-62
2023/06/14 03:38:28;;;;;;;15.70;9.40;;;;;;;23.43;29.44;100205.88;5054687;28;20021;-61
2023/06/14 03:40:54;;;;;;;17.08;9.73;;;;;;;23.79;28.57;100205.69;5053981;28;20036;-62
2023/06/14 03:43:19;;;;;;;15.88;8.90;;;;;;;23.98;27.81;100208.69;5054570;28;20025;-61
2023/06/14 03:45:45;;;;;;;16.75;9.55;;;;;;;24.14;28.09;100209.44;5037507;28;20028;-62
2023/06/14 03:48:11;;;;;;;16.92;9.65;;;;;;;24.35;27.53;100202.97;5054477;28;20048;-61
2023/06/14 03:50:37;;;;;;;20.25;9.45;;;;;;;24.62;27.04;100192.13;5054500;28;20134;-61
2023/06/14 03:53:04;;;;;;;17.33;9.15;;;;;;;25.06;26.46;100209.84;5054132;28;20052;-61
2023/06/14 03:55:31;;;;;;;17.58;9.38;;;;;;;25.37;26.17;100202.91;5054522;28;20029;-65
2023/06/14 03:57:57;;;;;;;18.08;8.85;;;;;;;25.85;25.55;100217.41;5054719;28;20116;-62
2023/06/14 04:00:23;;;;;;;18.23;9.20;;;;;;;26.33;24.72;100216.16;5053269;28;20334;-60
2023/06/14 04:02:48;;;;;;;22.65;8.88;;;;;;;26.74;24.28;100218.69;5053897;28;20040;-61
2023/06/14 04:05:16;;;;;;;14.02;8.07;;;;;;;27.12;23.47;100217.78;5054594;28;20025;-62
2023/06/14 04:07:44;;;;;;;15.73;7.93;;;;;;;27.83;22.66;100225.81;5054394;28;20040;-62
2023/06/14 04:10:13;;;;;;;16.38;8.18;;;;;;;28.64;21.64;100224.81;5053934;28;20155;-61
2023/06/14 04:12:39;;;;;;;13.90;7.93;;;;;;;29.43;20.56;100228.50;5053490;28;20059;-61
2023/06/14 04:15:06;;;;;;;12.35;7.60;;;;;;;29.90;20.19;100220.19;5053734;28;20396;-62
2023/06/14 04:17:35;;;;;;;13.23;7.47;;;;;;;30.47;19.77;100224.09;5054276;28;20025;-61
2023/06/14 04:20:04;;;;;;;11.93;7.05;;;;;;;30.98;18.68;100220.63;5053736;28;20071;-61
2023/06/14 04:22:31;;;;;;;12.35;6.95;;;;;;;31.26;18.30;100210.56;5053792;28;20040;-60
2023/06/14 04:24:57;;;;;;;12.18;7.30;;;;;;;31.68;17.93;100222.25;5053122;28;20048;-61
2023/06/14 04:27:25;;;;;;;12.32;7.47;;;;;;;31.91;17.62;100216.53;5053613;28;20091;-61
2023/06/14 04:29:59;;;;;;;20.20;7.50;;;;;;;32.59;17.38;100220.91;5053680;28;20118;-62
2023/06/14 04:32:26;;;;;;;12.02;7.45;;;;;;;33.29;16.59;100211.84;5053099;28;20518;-61
2023/06/14 04:34:58;;;;;;;13.40;6.97;;;;;;;33.91;16.38;100203.88;5053638;28;20040;-61
2023/06/14 04:37:27;;;;;;;13.07;6.65;;;;;;;34.60;15.35;100175.22;5053477;28;20056;-61
2023/06/14 04:39:55;;;;;;;13.98;7.43;;;;;;;35.31;14.74;100212.50;5052438;28;20337;-64
2023/06/14 04:42:24;;;;;;;13.45;7.22;;;;;;;35.99;13.99;100209.53;5036256;28;20040;-63
2023/06/14 04:44:51;;;;;;;10.95;6.82;;;;;;;36.53;13.40;100207.06;5053413;28;20033;-67
2023/06/14 04:47:17;;;;;;;11.75;6.32;;;;;;;37.06;13.46;100215.59;5053372;28;20460;-63
2023/06/14 04:49:44;;;;;;;15.43;6.38;;;;;;;37.23;13.01;100192.00;5052494;28;20040;-66
2023/06/14 04:52:10;;;;;;;13.13;5.95;;;;;;;37.74;12.89;100212.13;5051349;28;20029;-62
2023/06/14 04:54:41;;;;;;;12.27;6.30;;;;;;;38.43;12.60;100217.41;5052924;28;20462;-63
2023/06/14 04:57:08;;;;;;;14.63;6.13;;;;;;;39.28;11.45;100199.81;5052827;28;20041;-62
2023/06/14 04:59:35;;;;;;;8.93;5.72;;;;;;;39.76;10.75;100214.59;5052231;28;20360;-62
2023/06/14 05:02:01;;;;;;;12.73;5.68;;;;;;;40.30;10.16;100208.47;5052738;28;20344;-64
2023/06/14 05:04:27;;;;;;;6.53;5.10;;;;;;;40.80;10.34;100199.13;5051575;28;20091;-64
2023/06/14 05:06:57;;;;;;;12.15;5.38;;;;;;;41.06;9.45;100206.88;5035678;28;20039;-62
2023/06/14 05:09:23;;;;;;;7.85;5.85;;;;;;;41.50;9.61;100193.09;5052753;28;20039;-63
2023/06/14 05:11:50;;;;;;;9.00;5.03;;;;;;;41.98;8.94;100196.25;5052383;28;20040;-63
2023/06/14 05:14:15;;;;;;;10.70;4.82;;;;;;;42.72;8.64;100194.50;5052771;28;20033;-63
2023/06/14 05:16:42;;;;;;;15.13;4.90;;;;;;;42.95;8.69;100196.28;5052970;28;20286;-63
2023/06/14 05:19:10;;;;;;;11.60;4.78;;;;;;;43.22;8.33;100199.84;5052923;28;20072;-63
2023/06/14 05:21:37;;;;;;;10.23;4.47;;;;;;;43.21;8.44;100199.03;5053320;28;20029;-64
2023/06/14 05:24:02;;;;;;;12.73;4.80;;;;;;;43.21;8.00;100199.03;5052976;28;20028;-63
2023/06/14 05:26:28;;;;;;;7.57;4.20;;;;;;;43.79;7.58;100193.00;5052608;28;20021;-63
2023/06/14 05:28:57;;;;;;;7.05;3.67;;;;;;;44.27;7.82;100205.00;5052278;28;20025;-64
2023/06/14 05:31:25;;;;;;;13.50;4.50;;;;;;;44.22;7.59;100207.19;5052762;28;20064;-63
2023/06/14 05:33:52;;;;;;;9.73;4.10;;;;;;;44.16;7.38;100203.75;5051016;28;20064;-66
2023/06/14 05:36:18;;;;;;;14.55;3.90;;;;;;;44.35;7.35;100200.44;5051754;28;20064;-62
2023/06/14 05:38:43;;;;;;;10.25;4.63;;;;;;;44.17;7.28;100199.75;5052151;28;20056;-63
2023/06/14 05:41:09;;;;;;;10.23;3.92;;;;;;;44.22;7.59;100178.97;5050992;28;20029;-64
2023/06/14 05:43:34;;;;;;;7.65;3.63;;;;;;;44.61;7.06;100199.41;5050677;28;20029;-64
2023/06/14 05:46:00;;;;;;;8.07;3.60;;;;;;;44.70;7.33;100191.69;5050467;28;20400;-64
2023/06/14 05:48:25;;;;;;;5.72;3.35;;;;;;;44.84;7.13;100199.00;5049813;28;20033;-64
2023/06/14 05:50:51;;;;;;;4.28;3.28;;;;;;;45.20;6.44;100208.78;5050938;28;20037;-66
2023/06/14 05:53:16;;;;;;;6.00;3.20;;;;;;;44.88;6.61;100205.63;5051108;28;20047;-63
2023/06/14 05:55:42;;;;;;;3.55;3.00;;;;;;;45.00;6.66;100200.03;5051492;28;20441;-65
2023/06/14 05:58:08;;;;;;;3.55;2.55;;;;;;;44.66;6.64;100206.84;5034449;28;20096;-63
2023/06/14 06:00:33;;;;;;;5.28;3.05;;;;;;;44.89;6.69;100215.75;5052515;28;20070;-63
2023/06/14 06:02:59;;;;;;;6.93;2.78;;;;;;;44.22;6.51;100182.59;5052452;28;20441;-63
2023/06/14 06:05:24;;;;;;;8.48;2.63;;;;;;;44.82;7.02;100212.66;5052420;28;20106;-67
2023/06/14 06:07:50;;;;;;;4.50;2.90;;;;;;;45.24;6.91;100201.25;5051997;28;20029;-63
2023/06/14 06:10:16;;;;;;;4.03;2.88;;;;;;;45.86;6.14;100192.00;5052309;28;20358;-64
2023/06/14 06:12:42;;;;;;;5.60;2.67;;;;;;;45.70;5.91;100201.19;5051660;28;20045;-64
2023/06/14 06:15:11;;;;;;;4.40;2.55;;;;;;;45.80;5.91;100205.53;5051640;28;20041;-63
2023/06/14 06:17:38;;;;;;;4.32;2.55;;;;;;;46.06;5.33;100195.81;5051902;28;20033;-63
2023/06/14 06:20:06;;;;;;;11.15;2.90;;;;;;;46.89;5.59;100191.81;5051887;28;20045;-64
2023/06/14 06:22:31;;;;;;;3.60;2.90;;;;;;;47.85;5.29;100169.13;5051930;28;20029;-64
2023/06/14 06:24:57;;;;;;;6.78;3.10;;;;;;;49.26;4.70;100196.72;5055780;28;20021;-62
2023/06/14 06:27:22;;;;;;;7.45;2.60;;;;;;;49.42;4.08;100210.78;5056294;28;20360;-65
2023/06/14 06:29:48;;;;;;;7.22;2.83;;;;;;;48.32;4.03;100186.34;5055683;28;20029;-64
2023/06/14 06:32:15;;;;;;;5.25;2.50;;;;;;;48.21;4.54;100197.47;5038434;28;20413;-64
2023/06/14 06:34:40;;;;;;;6.80;2.58;;;;;;;48.62;4.67;100187.78;5055753;28;20024;-63
2023/06/14 06:37:06;;;;;;;5.65;2.60;;;;;;;49.01;4.46;100178.38;5055714;28;20096;-64
2023/06/14 06:39:31;;;;;;;5.25;2.63;;;;;;;48.68;3.88;100184.25;5055478;28;20108;-65
2023/06/14 06:41:58;;;;;;;5.88;2.22;;;;;;;48.47;4.65;100189.50;5055468;28;20025;-65
2023/06/14 06:44:23;;;;;;;3.83;2.67;;;;;;;48.63;4.22;100180.91;5056155;28;20029;-64
2023/06/14 06:46:49;;;;;;;7.10;2.70;;;;;;;49.08;4.33;100182.16;5055374;28;20025;-63
2023/06/14 06:49:14;;;;;;;6.82;2.63;;;;;;;49.95;3.74;100179.91;5055242;28;20093;-63
2023/06/14 06:51:42;;;;;;;3.35;2.63;;;;;;;50.29;3.41;100177.13;5055760;28;20094;-64
2023/06/14 06:54:08;;;;;;;3.80;3.00;;;;;;;49.69;3.35;100185.22;5055617;28;20425;-63
2023/06/14 06:56:34;;;;;;;3.92;2.78;;;;;;;49.36;3.96;100185.88;5048417;28;20065;-67
2023/06/14 06:58:59;;;;;;;5.55;2.67;;;;;;;48.54;4.26;100186.81;5053657;28;20056;-63
2023/06/14 07:01:25;;;;;;;6.50;2.90;;;;;;;48.23;4.07;100188.56;5048393;28;20108;-66
2023/06/14 07:03:52;;;;;;;6.30;2.50;;;;;;;46.97;4.89;100190.81;5051232;28;20037;-65
2023/06/14 07:06:18;;;;;;;3.33;2.47;;;;;;;45.69;5.51;100170.44;5054966;28;20034;-63
2023/06/14 07:08:44;;;;;;;5.93;2.88;;;;;;;46.42;5.02;100174.28;5055196;28;20143;-66
2023/06/14 07:11:10;;;;;;;8.10;2.92;;;;;;;48.19;4.12;100167.81;5055271;28;20449;-67
2023/06/14 07:13:35;;;;;;;5.15;2.45;;;;;;;49.61;3.71;100160.72;5055224;28;20033;-65
2023/06/14 07:16:01;;;;;;;7.25;2.78;;;;;;;50.75;3.69;100175.19;5054971;28;20127;-67
2023/06/14 07:18:27;;;;;;;5.63;2.83;;;;;;;49.76;3.18;100181.66;5054545;28;20444;-67
2023/06/14 07:20:53;;;;;;;4.30;2.70;;;;;;;48.36;3.72;100173.06;5038189;28;20041;-68
2023/06/14 07:23:23;;;;;;;7.53;2.90;;;;;;;47.34;4.66;100163.44;5034563;28;20039;-69
2023/06/14 07:25:48;;;;;;;3.60;2.45;;;;;;;47.03;4.55;100173.53;5034884;28;20358;-65
2023/06/14 07:28:14;;;;;;;5.30;2.80;;;;;;;48.00;4.03;100175.13;5047484;28;20034;-67
2023/06/14 07:30:40;;;;;;;4.20;2.78;;;;;;;48.85;3.67;100183.00;5069737;28;20035;-67
2023/06/14 07:33:05;;;;;;;6.03;2.42;;;;;;;49.04;3.93;100154.88;5074444;28;20059;-68
2023/06/14 07:35:31;;;;;;;7.03;2.78;;;;;;;49.42;3.66;100170.13;5057417;28;20060;-64
2023/06/14 07:37:57;;;;;;;4.72;2.38;;;;;;;49.69;3.64;100161.66;5069940;28;20040;-67
2023/06/14 07:40:22;;;;;;;6.75;3.22;;;;;;;50.65;3.12;100154.78;5054149;28;20033;-65
2023/06/14 07:42:50;;;;;;;7.05;2.85;;;;;;;51.35;3.28;100167.63;5053854;28;20049;-64
2023/06/14 07:45:16;;;;;;;4.30;3.35;;;;;;;51.50;2.79;100179.97;5036795;28;20043;-67
2023/06/14 07:47:42;;;;;;;8.85;3.75;;;;;;;50.24;3.16;100163.22;5051912;28;20040;-68
2023/06/14 07:50:08;;;;;;;3.95;3.50;;;;;;;49.62;3.77;100168.06;5054401;28;20087;-69
2023/06/14 07:52:33;;;;;;;8.05;3.55;;;;;;;49.76;3.39;100153.22;5061428;28;20025;-69
2023/06/14 07:55:00;;;;;;;4.75;3.00;;;;;;;50.23;3.26;100164.44;5056365;28;20113;-68
2023/06/14 07:57:25;;;;;;;6.32;3.10;;;;;;;50.78;3.38;100157.31;5060836;28;20033;-66
2023/06/14 07:59:51;;;;;;;9.57;3.80;;;;;;;51.00;3.01;100158.34;5054138;28;20029;-69
2023/06/14 08:02:16;;;;;;;6.47;3.50;;;;;;;50.60;3.26;100157.94;5053326;28;20449;-68
2023/06/14 08:04:42;;;;;;;5.68;3.15;;;;;;;50.03;3.06;100160.88;5057280;28;20086;-64
2023/06/14 08:07:08;;;;;;;6.53;3.15;;;;;;;48.49;4.05;100170.09;5054113;28;20028;-63
2023/06/14 08:09:37;;;;;;;6.88;3.00;;;;;;;46.82;4.49;100168.94;5054347;28;20044;-64
2023/06/14 08:12:07;;;;;;;5.78;2.78;;;;;;;46.53;4.75;100156.81;5057987;28;20036;-67
2023/06/14 08:14:33;;;;;;;3.40;3.03;;;;;;;46.08;5.06;100138.91;5024622;28;20373;-65
2023/06/14 08:16:59;;;;;;;7.13;2.85;;;;;;;45.71;5.39;100153.91;5044882;28;20029;-63
2023/06/14 08:19:24;;;;;;;16.40;3.20;;;;;;;45.62;5.42;100139.09;5054369;28;20039;-64
2023/06/14 08:21:50;;;;;;;4.75;2.50;;;;;;;44.51;5.60;100165.94;5053800;28;20083;-63
2023/06/14 08:24:16;;;;;;;7.40;2.90;;;;;;;41.39;7.49;100160.81;5053464;28;20255;-64
2023/06/14 08:26:41;;;;;;;5.40;2.92;;;;;;;38.23;9.38;100145.84;5053689;28;20040;-62
2023/06/14 08:29:07;;;;;;;6.03;2.50;;;;;;;36.09;10.88;100125.09;5066492;28;20059;-63
2023/06/14 08:31:34;;;;;;;6.82;2.55;;;;;;;34.55;11.78;100161.31;5066826;28;20044;-66
2023/06/14 08:33:59;;;;;;;4.38;2.97;;;;;;;33.19;13.22;100159.91;5060156;28;20476;-68
2023/06/14 08:36:25;;;;;;;5.30;3.15;;;;;;;31.51;13.95;100123.50;5040061;28;20025;-68
2023/06/14 08:38:50;;;;;;;3.92;2.92;;;;;;;30.48;15.08;100169.69;5033567;28;20116;-68
2023/06/14 08:41:22;;;;;;;4.05;2.72;;;;;;;29.72;15.93;100163.19;5047958;28;20029;-63
2023/06/14 08:43:47;;;;;;;9.05;2.88;;;;;;;29.05;17.00;100143.22;5060899;28;20039;-69
2023/06/14 08:46:19;;;;;;;4.88;3.05;;;;;;;28.71;17.38;100153.09;5049316;28;20041;-71
2023/06/14 08:48:47;;;;;;;4.15;2.78;;;;;;;28.00;18.57;100159.16;5051459;28;20021;-69
2023/06/14 08:51:15;;;;;;;6.75;3.22;;;;;;;27.53;18.96;100124.81;5049698;28;20021;-69
2023/06/14 08:53:43;;;;;;;3.55;2.72;;;;;;;26.75;19.69;100088.53;5033555;28;20033;-70
2023/06/14 08:56:13;;;;;;;6.50;3.03;;;;;;;26.87;19.53;100132.63;5052484;28;20456;-69
2023/06/14 08:58:44;;;;;;;5.72;3.25;;;;;;;26.85;20.27;100137.50;5052097;28;20024;-68
2023/06/14 09:01:16;;;;;;;7.85;3.20;;;;;;;26.86;19.79;100142.75;5052225;28;20029;-76
2023/06/14 09:03:42;;;;;;;6.97;3.13;;;;;;;26.47;20.24;100148.31;5052025;28;20032;-67
2023/06/14 09:06:13;;;;;;;6.95;3.08;;;;;;;26.32;20.29;100120.34;5052525;28;20029;-71
2023/06/14 09:08:47;;;;;;;7.95;3.40;;;;;;;26.14;20.41;100143.84;5053175;28;20457;-71
2023/06/14 09:11:14;;;;;;;4.57;3.15;;;;;;;25.88;20.91;100162.09;5052686;28;20546;-70
2023/06/14 09:13:41;;;;;;;3.35;2.75;;;;;;;25.50;20.95;100119.00;5052896;28;20126;-71
2023/06/14 09:16:07;;;;;;;8.30;3.13;;;;;;;25.23;21.81;100138.22;5052462;28;20029;-66
2023/06/14 09:18:47;;;;;;;4.68;3.35;;;;;;;25.30;22.02;100124.50;5103295;27;1452242;-67
2023/06/14 09:21:14;;;;;;;5.80;3.10;;;;;;;25.59;21.93;100125.94;5117035;27;20036;-68
2023/06/14 09:23:41;;;;;;;7.32;3.38;;;;;;;25.82;21.39;100121.00;5110913;28;20036;-68
2023/06/14 09:26:09;;;;;;;5.28;3.53;;;;;;;26.11;20.92;100122.31;5110981;28;20119;-68
2023/06/14 09:28:36;;;;;;;9.05;3.28;;;;;;;26.15;20.77;100120.81;5109628;28;20035;-68
2023/06/14 09:31:02;;;;;;;7.85;3.20;;;;;;;26.08;20.57;100123.59;5124965;28;20042;-69
2023/06/14 09:33:27;;;;;;;6.57;3.53;;;;;;;26.16;21.19;100114.31;5113521;27;20036;-69
2023/06/14 09:35:56;;;;;;;5.95;3.20;;;;;;;26.27;20.66;100122.88;5108162;28;20044;-70
2023/06/14 09:38:21;;;;;;;12.40;3.70;;;;;;;25.74;21.40;100064.47;5109034;28;20031;-68
2023/06/14 09:40:47;;;;;;;8.68;3.63;;;;;;;26.13;21.28;100119.34;5109812;28;20039;-69
2023/06/14 09:43:12;;;;;;;15.43;4.20;;;;;;;26.08;21.73;100122.78;5109394;28;20147;-69
2023/06/14 09:45:45;;;;;;;5.75;3.00;;;;;;;26.12;20.96;100129.50;5122976;28;20031;-69
2023/06/14 09:48:11;;;;;;;4.20;3.00;;;;;;;26.04;20.96;100116.00;5115525;27;20024;-70
2023/06/14 09:50:39;;;;;;;7.40;3.13;;;;;;;25.79;21.51;100092.94;5122456;28;20658;-64
2023/06/14 09:53:10;;;;;;;6.20;3.10;;;;;;;26.08;21.22;100123.59;5130231;27;20472;-65
2023/06/14 09:55:37;;;;;;;3.55;3.10;;;;;;;26.14;20.95;100108.16;5130063;27;20027;-64
2023/06/14 09:58:07;;;;;;;5.07;3.47;;;;;;;26.23;20.75;100108.78;5127145;28;20031;-79
2023/06/14 10:00:34;;;;;;;5.22;3.58;;;;;;;26.01;20.97;100108.22;5112064;27;20023;-78
2023/06/14 10:03:12;;;;;;;6.07;3.03;;;;;;;25.90;21.25;100105.13;5107937;28;20098;-61
2023/06/14 10:05:41;;;;;;;7.32;3.60;;;;;;;25.70;21.43;100098.88;5087296;28;20028;-59
2023/06/14 10:08:14;;;;;;;7.40;2.92;;;;;;;25.76;20.98;100092.53;5089528;28;20112;-70
2023/06/14 10:10:42;;;;;;;5.10;3.15;;;;;;;25.79;21.14;100097.56;5088750;28;20131;-71
2023/06/14 10:13:08;;;;;;;5.57;3.13;;;;;;;25.69;20.40;100089.84;5106774;28;20122;-63
2023/06/14 10:15:58;;;;;;;5.88;3.47;;;;;;;25.91;20.43;100101.31;5102258;28;20120;-71
2023/06/14 10:18:47;;;;;;;5.50;3.30;;;;;;;25.78;20.64;100088.53;5088366;28;20075;-64
2023/06/14 10:21:26;;;;;;;4.07;3.20;;;;;;;25.73;20.79;100092.97;5070206;28;20040;-63
2023/06/14 10:23:51;;;;;;;3.30;3.00;;;;;;;25.74;21.17;100075.44;5068377;28;20040;-64
2023/06/14 10:26:21;;;;;;;5.43;3.25;;;;;;;25.79;21.12;100092.09;5068184;28;20033;-60
2023/06/14 10:29:01;;;;;;;3.97;3.30;;;;;;;25.91;21.11;100084.00;5061515;28;20103;-68
2023/06/14 10:31:42;;;;;;;5.55;3.30;;;;;;;25.85;21.08;100080.25;5062236;28;20025;-61
2023/06/14 10:34:08;;;;;;;4.35;3.25;;;;;;;25.70;21.71;100077.81;5074695;28;20039;-62
2023/06/14 10:36:34;;;;;;;4.38;3.28;;;;;;;25.68;21.92;100071.66;5074998;28;20036;-75
2023/06/14 10:39:10;;;;;;;9.50;3.28;;;;;;;25.57;22.14;100062.25;5074783;28;20375;-63
2023/06/14 10:41:37;;;;;;;8.85;3.40;;;;;;;25.73;21.56;100066.41;5075013;28;20032;-64
2023/06/14 10:44:29;;;;;;;6.00;3.60;;;;;;;25.67;21.36;100039.00;5074768;28;20040;-72
2023/06/14 10:46:58;;;;;;;6.32;3.33;;;;;;;25.61;21.91;100070.88;5071209;28;20052;-62
2023/06/14 10:50:01;;;;;;;5.10;3.22;;;;;;;25.88;20.84;100070.75;5074570;28;20089;-64
2023/06/14 10:52:29;;;;;;;5.70;3.08;;;;;;;25.58;20.96;100057.59;5052585;28;20033;-62
2023/06/14 10:55:01;;;;;;;8.23;3.50;;;;;;;25.55;21.34;100061.59;5070389;28;20047;-62
2023/06/14 10:57:28;;;;;;;5.30;3.20;;;;;;;25.42;22.16;100036.97;5074696;28;20040;-62
2023/06/14 10:59:54;;;;;;;5.85;3.33;;;;;;;25.54;22.35;100051.69;5074932;28;20409;-62
2023/06/14 11:02:19;;;;;;;6.20;3.33;;;;;;;25.66;22.43;100046.38;5074215;28;20107;-62
2023/06/14 11:04:51;;;;;;;5.22;3.58;;;;;;;25.82;22.13;100052.44;5074247;28;20155;-63
2023/06/14 11:07:29;;;;;;;3.67;3.25;;;;;;;25.93;21.44;100055.31;5074463;28;20051;-61
2023/06/14 11:10:39;;;;;;;4.18;3.10;;;;;;;25.91;21.84;100054.69;5074484;28;20040;-62
2023/06/14 11:13:07;;;;;;;8.38;3.30;;;;;;;25.54;22.12;100028.94;5065179;28;20048;-62
2023/06/14 11:15:35;;;;;;;8.60;3.72;;;;;;;25.63;21.99;100058.63;5092956;28;20035;-62
2023/06/14 11:18:02;;;;;;;7.57;3.60;;;;;;;25.43;22.59;100036.75;5088371;28;20059;-63
2023/06/14 11:20:30;;;;;;;4.88;3.00;;;;;;;25.54;21.90;100050.88;5093942;28;20040;-65
2023/06/14 11:22:56;;;;;;;5.35;3.10;;;;;;;25.34;21.67;100036.16;5077090;28;20138;-65
2023/06/14 11:25:22;;;;;;;5.85;3.30;;;;;;;25.20;22.02;100034.53;5073314;28;20422;-62
2023/06/14 11:27:50;;;;;;;29.52;5.07;;;;;;;25.17;22.37;100018.53;5073045;28;20447;-62